Time;durP1;ratioP1;P1;durP2;ratioP2;P2;SDS_P1;SDS_P2;PMS_P1;PMS_P2;Temp;Humidity;BMP_temperature;BMP_pressure;BME280_temperature;BME280_humidity;BME280_pressure;Samples;Min_cycle;Max_cycle;Signal;HPM_P1;HPM_P2
2023/11/10 00:01:04;;;;;;;0.40;0.20;;;8.90;99.90;;;;;;5133465;27;20427;-62
2023/11/10 00:03:31;;;;;;;0.90;0.30;;;8.90;99.90;;;;;;5133707;27;20788;-61
2023/11/10 00:06:00;;;;;;;0.60;0.30;;;8.90;99.90;;;;;;5132658;27;20453;-64
2023/11/10 00:08:27;;;;;;;0.60;0.30;;;9.00;99.90;;;;;;5133807;27;20414;-60
2023/11/10 00:10:54;;;;;;;0.60;0.30;;;9.00;99.90;;;;;;5133189;27;20418;-60
2023/11/10 00:13:21;;;;;;;0.52;0.30;;;8.90;99.90;;;;;;5133593;27;20419;-61
2023/11/10 00:15:48;;;;;;;0.50;0.30;;;8.90;99.90;;;;;;5133437;27;20414;-60
2023/11/10 00:18:16;;;;;;;0.50;0.30;;;8.90;99.90;;;;;;5133788;27;20426;-60
2023/11/10 00:20:42;;;;;;;0.80;0.30;;;8.90;99.90;;;;;;5133933;27;20603;-61
2023/11/10 00:23:10;;;;;;;0.50;0.20;;;8.80;99.90;;;;;;5133182;27;21030;-61
2023/11/10 00:25:37;;;;;;;0.50;0.30;;;8.70;99.90;;;;;;5133381;27;20415;-62
2023/11/10 00:28:05;;;;;;;0.40;0.20;;;8.70;99.90;;;;;;5133880;27;20418;-61
2023/11/10 00:30:34;;;;;;;0.80;0.30;;;8.60;99.90;;;;;;5133217;27;20418;-62
2023/11/10 00:33:01;;;;;;;0.50;0.30;;;8.50;99.90;;;;;;5133000;27;20860;-62
2023/11/10 00:35:28;;;;;;;0.50;0.30;;;8.50;99.90;;;;;;5132754;27;20422;-62
2023/11/10 00:37:55;;;;;;;0.60;0.30;;;8.40;99.90;;;;;;5132994;27;20395;-61
2023/11/10 00:40:24;;;;;;;0.40;0.30;;;8.40;99.90;;;;;;5133252;27;20444;-62
2023/11/10 00:42:51;;;;;;;0.50;0.30;;;8.40;99.90;;;;;;5133487;27;20424;-62
2023/11/10 00:45:18;;;;;;;1.30;0.30;;;8.40;99.90;;;;;;5132997;27;20430;-61
2023/11/10 00:47:45;;;;;;;0.52;0.20;;;8.40;99.90;;;;;;5132369;27;20430;-61
2023/11/10 00:50:12;;;;;;;1.60;0.30;;;8.40;99.90;;;;;;5133858;27;20437;-61
2023/11/10 00:52:39;;;;;;;0.40;0.20;;;8.30;99.90;;;;;;5134633;27;20899;-61
2023/11/10 00:55:07;;;;;;;0.40;0.20;;;8.30;99.90;;;;;;5134442;27;20921;-61
2023/11/10 00:57:35;;;;;;;0.50;0.20;;;8.20;99.90;;;;;;5133772;27;20415;-61
2023/11/10 01:00:03;;;;;;;0.50;0.20;;;8.20;99.90;;;;;;5133946;27;20414;-61
2023/11/10 01:02:30;;;;;;;1.40;0.20;;;8.10;99.90;;;;;;5133617;27;20422;-61
2023/11/10 01:04:57;;;;;;;0.40;0.20;;;8.10;99.90;;;;;;5133651;27;20969;-62
2023/11/10 01:07:24;;;;;;;0.70;0.20;;;8.10;99.90;;;;;;5134626;27;20430;-62
2023/11/10 01:09:51;;;;;;;0.45;0.20;;;8.10;99.90;;;;;;5134830;27;20422;-60
2023/11/10 01:12:19;;;;;;;0.40;0.20;;;8.10;99.90;;;;;;5133864;27;20434;-61
2023/11/10 01:14:48;;;;;;;0.80;0.20;;;8.10;99.90;;;;;;5133956;27;20422;-62
2023/11/10 01:17:15;;;;;;;2.13;0.25;;;8.10;99.90;;;;;;5134588;27;20418;-61
2023/11/10 01:19:43;;;;;;;0.40;0.20;;;8.00;99.90;;;;;;5134747;27;20822;-62
2023/11/10 01:22:11;;;;;;;0.45;0.20;;;8.10;99.90;;;;;;5134012;27;20458;-61
2023/11/10 01:24:38;;;;;;;0.40;0.20;;;8.10;99.90;;;;;;5133461;27;20475;-61
2023/11/10 01:27:06;;;;;;;0.50;0.20;;;8.00;99.90;;;;;;5133766;27;20880;-61
2023/11/10 01:29:33;;;;;;;0.50;0.20;;;8.10;99.90;;;;;;5133686;27;20534;-61
2023/11/10 01:32:01;;;;;;;1.20;0.20;;;8.00;99.90;;;;;;5139528;27;20471;-61
2023/11/10 01:34:28;;;;;;;0.80;0.20;;;8.00;99.90;;;;;;5138484;27;20915;-62
2023/11/10 01:36:55;;;;;;;0.57;0.20;;;8.10;99.90;;;;;;5138810;27;20429;-61
2023/11/10 01:39:22;;;;;;;0.40;0.20;;;8.10;99.90;;;;;;5139102;27;20419;-61
2023/11/10 01:41:49;;;;;;;0.30;0.20;;;8.10;99.90;;;;;;5139165;27;20482;-62
2023/11/10 01:44:16;;;;;;;0.50;0.20;;;8.10;99.90;;;;;;5138928;27;20414;-62
2023/11/10 01:46:46;;;;;;;0.80;0.20;;;8.10;99.90;;;;;;5139090;27;20498;-62
2023/11/10 01:49:17;;;;;;;0.77;0.40;;;8.10;99.90;;;;;;5140238;27;20422;-62
2023/11/10 01:51:45;;;;;;;0.85;0.38;;;8.00;99.90;;;;;;5140155;27;20901;-62
2023/11/10 01:54:16;;;;;;;0.40;0.20;;;8.00;99.90;;;;;;5139928;27;20425;-62
2023/11/10 01:56:46;;;;;;;0.30;0.10;;;8.10;99.90;;;;;;5139693;27;20857;-62
2023/11/10 01:59:14;;;;;;;0.45;0.20;;;8.10;99.90;;;;;;5139157;27;20414;-62
2023/11/10 02:01:41;;;;;;;0.40;0.20;;;8.20;99.90;;;;;;5138997;27;20426;-62
2023/11/10 02:04:11;;;;;;;1.60;0.30;;;8.10;99.90;;;;;;5139453;27;20414;-62
2023/11/10 02:06:41;;;;;;;0.40;0.20;;;8.00;99.90;;;;;;5139453;27;20434;-62
2023/11/10 02:09:09;;;;;;;0.50;0.20;;;8.10;99.90;;;;;;5139102;27;20422;-62
2023/11/10 02:11:38;;;;;;;0.40;0.20;;;8.10;99.90;;;;;;5139268;27;20429;-62
2023/11/10 02:14:06;;;;;;;0.40;0.20;;;8.10;99.90;;;;;;5139186;27;20706;-61
2023/11/10 02:16:33;;;;;;;0.40;0.20;;;8.10;99.90;;;;;;5138960;27;20402;-61
2023/11/10 02:19:01;;;;;;;0.30;0.20;;;8.10;99.90;;;;;;5139525;27;20514;-61
2023/11/10 02:21:28;;;;;;;0.50;0.20;;;8.20;99.90;;;;;;5138925;27;20764;-61
2023/11/10 02:23:57;;;;;;;1.20;0.30;;;8.20;99.90;;;;;;5139857;27;20849;-61
2023/11/10 02:26:26;;;;;;;0.30;0.15;;;8.20;99.90;;;;;;5140219;27;20423;-60
2023/11/10 02:28:53;;;;;;;0.55;0.20;;;8.20;99.90;;;;;;5139050;27;20878;-60
2023/11/10 02:31:20;;;;;;;0.30;0.20;;;8.20;99.90;;;;;;5138646;27;20422;-61
2023/11/10 02:33:47;;;;;;;0.40;0.20;;;8.20;99.90;;;;;;5138857;27;20461;-61
2023/11/10 02:36:15;;;;;;;0.80;0.20;;;8.20;99.90;;;;;;5138566;27;20511;-61
2023/11/10 02:38:45;;;;;;;0.40;0.20;;;8.20;99.90;;;;;;5138404;27;20423;-62
2023/11/10 02:41:12;;;;;;;0.40;0.10;;;8.20;99.90;;;;;;5137779;27;20472;-61
2023/11/10 02:43:41;;;;;;;0.40;0.20;;;8.30;99.90;;;;;;5135494;27;20468;-61
2023/11/10 02:46:08;;;;;;;0.40;0.20;;;8.20;99.90;;;;;;5134984;27;20422;-61
2023/11/10 02:48:35;;;;;;;0.40;0.20;;;8.30;99.90;;;;;;5134669;27;20861;-61
2023/11/10 02:51:02;;;;;;;0.40;0.20;;;8.30;99.90;;;;;;5134822;27;20775;-61
2023/11/10 02:53:29;;;;;;;0.40;0.20;;;8.30;99.90;;;;;;5135415;27;20427;-61
2023/11/10 02:55:55;;;;;;;0.40;0.20;;;8.30;99.90;;;;;;5134970;27;20419;-61
2023/11/10 02:58:22;;;;;;;0.50;0.20;;;8.30;99.90;;;;;;5134670;27;20475;-61
2023/11/10 03:00:53;;;;;;;0.40;0.20;;;8.40;99.90;;;;;;5134733;27;20427;-61
2023/11/10 03:03:20;;;;;;;0.40;0.20;;;8.40;99.90;;;;;;5093778;28;20418;-61
2023/11/10 03:05:47;;;;;;;0.50;0.20;;;8.30;99.90;;;;;;5092740;28;20791;-61
2023/11/10 03:08:14;;;;;;;0.30;0.20;;;8.20;99.90;;;;;;5093344;28;20429;-61
2023/11/10 03:10:42;;;;;;;0.30;0.13;;;8.20;99.90;;;;;;5093769;28;20418;-62
2023/11/10 03:13:09;;;;;;;0.43;0.20;;;8.10;99.90;;;;;;5094066;28;20426;-62
2023/11/10 03:15:37;;;;;;;0.40;0.20;;;8.10;99.90;;;;;;5093369;28;20461;-61
2023/11/10 03:18:06;;;;;;;0.30;0.20;;;8.10;99.90;;;;;;5093732;28;20418;-61
2023/11/10 03:20:33;;;;;;;0.38;0.20;;;8.10;99.90;;;;;;5093217;28;20428;-62
2023/11/10 03:23:00;;;;;;;0.60;0.20;;;8.10;99.90;;;;;;5092833;28;20469;-62
2023/11/10 03:25:28;;;;;;;0.50;0.20;;;8.00;99.90;;;;;;5092042;28;20425;-62
2023/11/10 03:27:55;;;;;;;0.53;0.20;;;8.00;99.90;;;;;;5091874;28;21007;-62
2023/11/10 03:30:22;;;;;;;0.40;0.20;;;8.00;99.90;;;;;;5091882;28;20788;-62
2023/11/10 03:32:49;;;;;;;0.30;0.10;;;8.00;99.90;;;;;;5092547;28;20692;-62
2023/11/10 03:35:18;;;;;;;0.30;0.10;;;8.00;99.90;;;;;;5092937;28;20424;-61
2023/11/10 03:37:45;;;;;;;0.40;0.13;;;8.00;99.90;;;;;;5092491;28;20818;-62
2023/11/10 03:40:15;;;;;;;0.30;0.10;;;8.00;99.90;;;;;;5091903;28;20864;-61
2023/11/10 03:42:43;;;;;;;0.30;0.10;;;8.10;99.90;;;;;;5091239;28;20607;-61
2023/11/10 03:45:10;;;;;;;0.30;0.10;;;8.10;99.90;;;;;;5091312;28;20526;-62
2023/11/10 03:47:37;;;;;;;0.40;0.10;;;8.20;99.90;;;;;;5092853;28;20532;-62
2023/11/10 03:50:06;;;;;;;0.30;0.10;;;8.20;99.90;;;;;;5091981;28;20917;-61
2023/11/10 03:52:35;;;;;;;0.60;0.10;;;8.20;99.90;;;;;;5093138;28;20422;-62
2023/11/10 03:55:02;;;;;;;0.40;0.10;;;8.20;99.90;;;;;;5091917;28;20426;-62
2023/11/10 03:57:29;;;;;;;0.30;0.10;;;8.20;99.90;;;;;;5092460;28;20422;-62
2023/11/10 03:59:56;;;;;;;0.30;0.10;;;8.20;99.90;;;;;;5090685;28;20536;-62
2023/11/10 04:02:23;;;;;;;0.30;0.10;;;8.40;99.90;;;;;;5117845;27;20488;-61
2023/11/10 04:04:50;;;;;;;1.10;0.10;;;8.40;99.90;;;;;;5133615;27;20411;-62
2023/11/10 04:07:17;;;;;;;0.30;0.10;;;8.30;99.90;;;;;;5132319;27;20435;-63
2023/11/10 04:09:46;;;;;;;1.10;0.10;;;8.30;99.90;;;;;;5132138;27;20632;-62
2023/11/10 04:12:13;;;;;;;0.30;0.10;;;8.20;99.90;;;;;;5134224;27;20410;-62
2023/11/10 04:14:40;;;;;;;0.30;0.10;;;8.20;99.90;;;;;;5132900;27;20578;-61
2023/11/10 04:17:07;;;;;;;0.30;0.10;;;8.20;99.90;;;;;;5133849;27;20493;-62
2023/11/10 04:19:34;;;;;;;0.50;0.20;;;8.10;99.90;;;;;;5133075;27;20464;-62
2023/11/10 04:22:01;;;;;;;0.30;0.10;;;8.20;99.90;;;;;;5133713;27;20418;-62
2023/11/10 04:24:28;;;;;;;0.40;0.10;;;8.20;99.90;;;;;;5134310;27;20475;-62
2023/11/10 04:26:57;;;;;;;0.30;0.10;;;8.10;99.90;;;;;;5133937;27;20422;-61
2023/11/10 04:29:24;;;;;;;0.30;0.10;;;8.10;99.90;;;;;;5133009;27;20768;-61
2023/11/10 04:31:51;;;;;;;0.30;0.10;;;8.10;99.90;;;;;;5132780;27;20417;-61
2023/11/10 04:34:19;;;;;;;0.30;0.10;;;8.10;99.90;;;;;;5133858;27;20430;-62
2023/11/10 04:36:46;;;;;;;0.50;0.10;;;8.20;99.90;;;;;;5134110;27;20422;-60
2023/11/10 04:39:15;;;;;;;0.40;0.10;;;8.10;99.90;;;;;;5132882;27;20914;-61
2023/11/10 04:41:42;;;;;;;0.60;0.10;;;8.10;99.90;;;;;;5132414;27;20422;-62
2023/11/10 04:44:10;;;;;;;0.30;0.10;;;8.10;99.90;;;;;;5132575;27;20514;-61
2023/11/10 04:46:41;;;;;;;0.40;0.10;;;8.10;99.90;;;;;;5130957;27;20856;-61
2023/11/10 04:49:09;;;;;;;0.30;0.10;;;8.10;99.90;;;;;;5129542;27;20798;-62
2023/11/10 04:51:36;;;;;;;0.30;0.10;;;8.10;99.90;;;;;;5128985;27;20429;-62
2023/11/10 04:54:04;;;;;;;0.30;0.10;;;8.10;99.90;;;;;;5129920;27;20422;-60
2023/11/10 04:56:33;;;;;;;0.50;0.10;;;8.10;99.90;;;;;;5130914;27;20486;-61
2023/11/10 04:59:00;;;;;;;0.30;0.10;;;8.10;99.90;;;;;;5130796;27;20423;-62
2023/11/10 05:01:31;;;;;;;0.30;0.10;;;8.10;99.90;;;;;;5131561;27;20418;-61
2023/11/10 05:03:57;;;;;;;0.32;0.10;;;8.10;99.90;;;;;;5131426;27;20422;-62
2023/11/10 05:06:31;;;;;;;0.30;0.10;;;8.10;99.90;;;;;;5129788;27;20783;-62
2023/11/10 05:08:58;;;;;;;0.30;0.10;;;8.10;99.90;;;;;;5129210;27;20487;-62
2023/11/10 05:11:25;;;;;;;0.30;0.10;;;8.10;99.90;;;;;;5130733;27;20833;-62
2023/11/10 05:13:52;;;;;;;0.90;0.10;;;8.10;99.90;;;;;;5129048;27;20490;-61
2023/11/10 05:16:20;;;;;;;0.30;0.10;;;8.20;99.90;;;;;;5130538;27;20466;-61
2023/11/10 05:18:48;;;;;;;0.30;0.10;;;8.00;99.90;;;;;;5130764;27;20414;-61
2023/11/10 05:21:16;;;;;;;0.30;0.10;;;8.10;99.90;;;;;;5130017;27;20458;-60
2023/11/10 05:23:43;;;;;;;0.30;0.10;;;8.10;99.90;;;;;;5130668;27;20414;-61
2023/11/10 05:26:10;;;;;;;0.30;0.10;;;8.10;99.90;;;;;;5130759;27;20569;-61
2023/11/10 05:28:37;;;;;;;0.30;0.10;;;8.10;99.90;;;;;;5130572;27;20427;-61
2023/11/10 05:31:05;;;;;;;0.30;0.10;;;8.00;99.90;;;;;;5131151;27;20429;-61
2023/11/10 05:33:32;;;;;;;0.30;0.10;;;8.00;99.90;;;;;;5130797;27;20457;-61
2023/11/10 05:36:01;;;;;;;0.40;0.10;;;8.00;99.90;;;;;;5130690;27;20432;-61
2023/11/10 05:38:29;;;;;;;0.30;0.10;;;8.10;99.90;;;;;;5128752;27;20449;-61
2023/11/10 05:40:57;;;;;;;0.30;0.10;;;8.10;99.90;;;;;;5126569;27;20771;-61
2023/11/10 05:43:25;;;;;;;0.30;0.10;;;8.10;99.90;;;;;;5126312;27;20414;-61
2023/11/10 05:45:52;;;;;;;0.30;0.10;;;8.00;99.90;;;;;;5127323;27;20554;-61
2023/11/10 05:48:19;;;;;;;0.30;0.10;;;7.90;99.90;;;;;;5127726;27;20790;-61
2023/11/10 05:50:47;;;;;;;0.40;0.10;;;7.90;99.90;;;;;;5128819;27;20680;-62
2023/11/10 05:53:17;;;;;;;0.30;0.10;;;7.90;99.90;;;;;;5130091;27;20406;-62
2023/11/10 05:55:44;;;;;;;0.30;0.10;;;7.80;99.90;;;;;;5130804;27;20833;-62
2023/11/10 05:58:11;;;;;;;0.30;0.10;;;7.80;99.90;;;;;;5131411;27;20835;-62
2023/11/10 06:00:38;;;;;;;0.30;0.10;;;7.80;99.90;;;;;;5130635;27;20415;-62
2023/11/10 06:03:07;;;;;;;0.30;0.10;;;7.80;99.90;;;;;;5130098;27;20419;-63
2023/11/10 06:05:34;;;;;;;0.30;0.10;;;7.90;99.90;;;;;;5129937;27;20430;-62
2023/11/10 06:08:01;;;;;;;1.30;0.10;;;7.80;99.90;;;;;;5129497;27;20771;-62
2023/11/10 06:10:30;;;;;;;0.30;0.10;;;7.80;99.90;;;;;;5130490;27;20425;-62
2023/11/10 06:12:57;;;;;;;0.30;0.10;;;7.90;99.90;;;;;;5130677;27;20517;-62
2023/11/10 06:15:24;;;;;;;0.32;0.10;;;7.80;99.90;;;;;;5129322;27;20471;-62
2023/11/10 06:17:51;;;;;;;0.30;0.10;;;7.80;99.90;;;;;;5131003;27;20760;-62
2023/11/10 06:20:18;;;;;;;0.30;0.10;;;7.80;99.90;;;;;;5132657;27;20406;-62
2023/11/10 06:22:45;;;;;;;0.30;0.10;;;7.80;99.90;;;;;;5131192;27;20834;-62
2023/11/10 06:25:12;;;;;;;0.40;0.10;;;7.90;99.90;;;;;;5131128;27;20776;-62
2023/11/10 06:27:40;;;;;;;0.40;0.10;;;7.80;99.90;;;;;;5131043;27;20430;-63
2023/11/10 06:30:09;;;;;;;0.40;0.10;;;7.80;99.90;;;;;;5130586;27;20419;-63
2023/11/10 06:32:36;;;;;;;0.40;0.20;;;7.80;99.90;;;;;;5130821;27;20426;-62
2023/11/10 06:35:04;;;;;;;0.40;0.10;;;7.80;99.90;;;;;;5130933;27;20418;-62
2023/11/10 06:37:31;;;;;;;0.40;0.10;;;7.70;99.90;;;;;;5132021;27;20841;-62
2023/11/10 06:39:58;;;;;;;0.30;0.10;;;7.70;99.90;;;;;;5131142;27;20429;-62
2023/11/10 06:42:26;;;;;;;0.30;0.10;;;7.80;99.90;;;;;;5131928;27;20475;-63
2023/11/10 06:44:55;;;;;;;0.40;0.10;;;7.80;99.90;;;;;;5131922;27;20864;-62
2023/11/10 06:47:22;;;;;;;0.80;0.10;;;7.90;99.90;;;;;;5130872;27;20421;-62
2023/11/10 06:49:49;;;;;;;0.38;0.20;;;7.80;99.90;;;;;;5130230;27;20495;-62
2023/11/10 06:52:17;;;;;;;0.30;0.10;;;7.80;99.90;;;;;;5129599;27;20419;-62
2023/11/10 06:54:44;;;;;;;0.30;0.10;;;7.70;99.90;;;;;;5129407;27;20712;-62
2023/11/10 06:57:11;;;;;;;0.30;0.10;;;7.80;99.90;;;;;;5128139;27;20693;-60
2023/11/10 06:59:39;;;;;;;0.50;0.10;;;7.90;99.90;;;;;;5122555;27;20422;-60
2023/11/10 07:02:09;;;;;;;0.32;0.10;;;7.90;99.90;;;;;;5117587;27;20892;-59
2023/11/10 07:04:43;;;;;;;0.30;0.10;;;7.80;99.90;;;;;;5121883;27;20489;-59
2023/11/10 07:07:11;;;;;;;0.40;0.10;;;7.80;99.90;;;;;;5131592;27;20624;-59
2023/11/10 07:09:39;;;;;;;0.50;0.10;;;7.80;99.90;;;;;;5128009;27;20613;-59
2023/11/10 07:12:08;;;;;;;0.30;0.10;;;7.80;99.90;;;;;;5130465;27;20739;-59
2023/11/10 07:14:36;;;;;;;0.32;0.10;;;7.70;99.90;;;;;;5128510;27;20577;-59
2023/11/10 07:17:03;;;;;;;0.50;0.10;;;7.80;99.90;;;;;;5125864;27;20410;-62
2023/11/10 07:19:32;;;;;;;0.30;0.10;;;7.70;99.90;;;;;;5131707;27;20410;-59
2023/11/10 07:21:59;;;;;;;0.30;0.10;;;7.80;99.90;;;;;;5128534;27;20733;-58
2023/11/10 07:24:26;;;;;;;0.40;0.10;;;7.80;99.90;;;;;;5128642;27;20430;-58
2023/11/10 07:26:54;;;;;;;0.50;0.10;;;7.70;99.90;;;;;;5119057;27;20443;-58
2023/11/10 07:29:21;;;;;;;0.30;0.10;;;7.60;99.90;;;;;;5124344;27;20426;-59
2023/11/10 07:31:50;;;;;;;0.70;0.20;;;7.60;99.90;;;;;;5128746;27;20411;-58
2023/11/10 07:34:18;;;;;;;0.63;0.10;;;7.50;99.90;;;;;;5131115;27;20501;-59
2023/11/10 07:36:47;;;;;;;0.40;0.10;;;7.60;99.90;;;;;;5128963;27;20430;-59
2023/11/10 07:39:14;;;;;;;1.20;0.10;;;7.60;99.90;;;;;;5127470;27;20423;-58
2023/11/10 07:41:41;;;;;;;0.35;0.10;;;7.60;99.90;;;;;;5129382;27;20423;-59
2023/11/10 07:44:10;;;;;;;0.30;0.10;;;7.70;99.90;;;;;;5122276;27;20431;-58
2023/11/10 07:46:37;;;;;;;0.40;0.20;;;7.80;99.90;;;;;;5125507;27;20506;-59
2023/11/10 07:49:04;;;;;;;1.10;0.20;;;7.80;99.90;;;;;;5129376;27;20430;-59
2023/11/10 07:51:32;;;;;;;0.60;0.20;;;7.90;99.90;;;;;;5126265;27;20437;-59
2023/11/10 07:54:00;;;;;;;0.50;0.20;;;7.90;99.90;;;;;;5127001;27;20513;-59
2023/11/10 07:56:27;;;;;;;0.30;0.10;;;7.90;99.90;;;;;;5117292;27;21122;-59
2023/11/10 07:58:54;;;;;;;0.40;0.20;;;7.80;99.90;;;;;;5125753;27;20418;-59
2023/11/10 08:01:25;;;;;;;0.40;0.10;;;7.80;99.90;;;;;;5125759;27;20504;-59
2023/11/10 08:03:52;;;;;;;0.32;0.10;;;7.80;99.90;;;;;;5127588;27;20483;-59
2023/11/10 08:06:20;;;;;;;1.00;0.20;;;7.70;99.90;;;;;;5126101;27;20722;-59
2023/11/10 08:08:47;;;;;;;0.38;0.15;;;7.80;99.90;;;;;;5126202;27;20439;-60
2023/11/10 08:11:17;;;;;;;0.50;0.20;;;7.90;99.90;;;;;;5125608;27;20444;-59
2023/11/10 08:13:45;;;;;;;0.40;0.20;;;7.90;99.90;;;;;;5125657;27;20853;-59
2023/11/10 08:16:12;;;;;;;0.40;0.20;;;7.90;99.90;;;;;;5121066;27;20438;-60
2023/11/10 08:18:39;;;;;;;0.60;0.20;;;7.80;99.90;;;;;;5128881;27;20846;-59
2023/11/10 08:21:07;;;;;;;1.20;0.20;;;7.80;99.90;;;;;;5128645;27;20862;-59
2023/11/10 08:23:34;;;;;;;0.40;0.17;;;7.90;99.90;;;;;;5128266;27;20430;-60
2023/11/10 08:26:02;;;;;;;0.30;0.10;;;8.00;99.90;;;;;;5114367;27;20422;-59
2023/11/10 08:28:31;;;;;;;0.50;0.20;;;8.10;99.90;;;;;;5128576;27;20426;-59
2023/11/10 08:30:58;;;;;;;0.70;0.20;;;8.20;99.90;;;;;;5130143;27;20483;-59
2023/11/10 08:33:26;;;;;;;0.40;0.20;;;8.20;99.90;;;;;;5130108;27;20435;-59
2023/11/10 08:35:53;;;;;;;0.40;0.20;;;8.30;99.90;;;;;;5129315;27;20691;-59
2023/11/10 08:38:20;;;;;;;0.30;0.10;;;8.50;99.90;;;;;;5128865;27;20905;-60
2023/11/10 08:40:48;;;;;;;0.30;0.10;;;8.50;99.90;;;;;;5127619;27;20429;-60
2023/11/10 08:43:15;;;;;;;0.32;0.10;;;8.50;99.90;;;;;;5128888;27;20461;-62
2023/11/10 08:45:43;;;;;;;0.30;0.10;;;8.60;99.90;;;;;;5128264;27;20502;-59
2023/11/10 08:48:10;;;;;;;0.40;0.15;;;8.60;99.90;;;;;;5126977;27;20434;-61
2023/11/10 08:50:39;;;;;;;0.30;0.10;;;8.70;99.90;;;;;;5128113;27;20943;-61
2023/11/10 08:53:09;;;;;;;0.30;0.10;;;8.70;99.90;;;;;;5127616;27;20422;-60
2023/11/10 08:55:37;;;;;;;0.30;0.10;;;8.80;99.90;;;;;;5129167;27;20454;-60
2023/11/10 08:58:05;;;;;;;0.40;0.20;;;8.90;99.90;;;;;;5129012;27;20733;-61
2023/11/10 09:00:32;;;;;;;0.40;0.20;;;9.00;99.90;;;;;;5128495;27;20423;-60
2023/11/10 09:03:00;;;;;;;0.30;0.10;;;9.10;99.90;;;;;;5118056;27;20445;-60
2023/11/10 09:05:27;;;;;;;0.40;0.10;;;9.20;99.90;;;;;;5123619;27;20438;-61
2023/11/10 09:07:54;;;;;;;0.40;0.20;;;9.20;97.00;;;;;;5120808;27;20437;-60
2023/11/10 09:10:23;;;;;;;0.70;0.20;;;9.30;99.90;;;;;;5126390;27;20471;-60
2023/11/10 09:12:50;;;;;;;0.30;0.10;;;9.30;69.00;;;;;;5121906;27;20436;-60
2023/11/10 09:15:18;;;;;;;0.30;0.10;;;9.30;70.40;;;;;;5122322;27;20434;-60
2023/11/10 09:17:45;;;;;;;0.80;0.20;;;9.20;91.00;;;;;;5124046;27;20430;-61
2023/11/10 09:20:15;;;;;;;0.30;0.10;;;9.20;96.40;;;;;;5115622;27;20436;-59
2023/11/10 09:22:42;;;;;;;0.60;0.28;;;9.30;91.20;;;;;;5115828;27;20452;-60
2023/11/10 09:25:15;;;;;;;0.50;0.20;;;9.20;99.90;;;;;;5125214;27;20440;-59
2023/11/10 09:27:43;;;;;;;0.40;0.20;;;9.20;99.90;;;;;;5124586;27;20430;-59
2023/11/10 09:30:11;;;;;;;0.40;0.10;;;9.30;99.90;;;;;;5123992;27;20433;-60
2023/11/10 09:32:38;;;;;;;0.40;0.10;;;9.30;99.90;;;;;;5120459;27;20440;-60
2023/11/10 09:35:06;;;;;;;0.30;0.10;;;9.40;99.90;;;;;;5119823;27;20436;-62
2023/11/10 09:37:35;;;;;;;0.30;0.10;;;9.30;99.90;;;;;;5116927;27;20431;-61
2023/11/10 09:40:02;;;;;;;0.90;0.20;;;9.40;99.90;;;;;;5125778;27;20426;-61
2023/11/10 09:42:29;;;;;;;0.32;0.10;;;9.50;99.90;;;;;;5124037;27;20532;-61
2023/11/10 09:44:56;;;;;;;0.40;0.10;;;9.70;99.90;;;;;;5125516;27;20847;-61
2023/11/10 09:47:25;;;;;;;1.00;0.20;;;9.80;99.90;;;;;;5126988;27;20442;-60
2023/11/10 09:49:54;;;;;;;1.25;0.30;;;9.80;99.90;;;;;;5128705;28;20419;-61
2023/11/10 09:52:22;;;;;;;0.50;0.20;;;9.80;21.10;;;;;;5128790;27;20429;-61
2023/11/10 09:54:53;;;;;;;0.50;0.20;;;9.80;99.90;;;;;;5131817;27;20921;-61
2023/11/10 09:57:22;;;;;;;0.40;0.20;;;9.80;99.90;;;;;;5131646;27;20483;-61
2023/11/10 09:59:50;;;;;;;0.30;0.10;;;9.80;9.40;;;;;;5133099;27;20713;-60
2023/11/10 10:02:17;;;;;;;0.40;0.20;;;9.70;99.90;;;;;;5133195;27;20770;-60
2023/11/10 10:04:47;;;;;;;0.93;0.30;;;9.70;99.90;;;;;;5136909;27;20434;-61
2023/11/10 10:07:15;;;;;;;0.47;0.20;;;9.70;99.90;;;;;;5124104;27;20894;-61
2023/11/10 10:09:43;;;;;;;0.40;0.20;;;9.60;99.90;;;;;;5133850;27;20438;-60
2023/11/10 10:12:13;;;;;;;0.40;0.10;;;9.50;99.90;;;;;;5132566;27;20498;-61
2023/11/10 10:14:40;;;;;;;0.50;0.30;;;9.40;44.50;;;;;;5132196;27;20437;-60
2023/11/10 10:17:11;;;;;;;0.90;0.20;;;9.40;99.90;;;;;;5131852;27;20861;-61
2023/11/10 10:19:38;;;;;;;0.40;0.20;;;9.40;99.90;;;;;;5130138;27;20419;-61
2023/11/10 10:22:05;;;;;;;0.40;0.20;;;9.50;99.90;;;;;;5121427;27;20813;-61
2023/11/10 10:24:32;;;;;;;0.30;0.10;;;9.40;99.90;;;;;;5129648;27;20546;-61
2023/11/10 10:26:59;;;;;;;0.50;0.20;;;9.30;99.90;;;;;;5131247;27;20429;-66
2023/11/10 10:29:30;;;;;;;0.40;0.20;;;9.20;21.90;;;;;;5131225;27;20721;-55
2023/11/10 10:31:57;;;;;;;0.67;0.27;;;9.20;99.90;;;;;;5131889;27;20469;-57
2023/11/10 10:34:27;;;;;;;0.80;0.20;;;9.10;99.90;;;;;;5132378;27;20422;-58
2023/11/10 10:36:54;;;;;;;0.40;0.10;;;9.10;99.90;;;;;;5133977;27;20418;-57
2023/11/10 10:39:23;;;;;;;0.30;0.10;;;9.20;99.90;;;;;;5130440;27;20490;-58
2023/11/10 10:41:50;;;;;;;0.40;0.20;;;9.30;99.90;;;;;;5131255;27;20434;-57
2023/11/10 10:44:20;;;;;;;0.40;0.20;;;9.30;99.90;;;;;;5131736;27;20426;-56
2023/11/10 10:46:50;;;;;;;0.40;0.20;;;9.30;99.90;;;;;;5131568;27;20418;-53
2023/11/10 10:49:19;;;;;;;0.40;0.20;;;9.50;99.90;;;;;;5129338;27;20582;-51
2023/11/10 10:51:49;;;;;;;0.40;0.10;;;9.60;99.90;;;;;;5129194;27;20453;-55
2023/11/10 10:54:21;;;;;;;0.40;0.10;;;9.70;99.90;;;;;;5130618;27;20461;-55
2023/11/10 10:56:50;;;;;;;0.50;0.20;;;9.70;99.90;;;;;;5130588;27;20479;-52
2023/11/10 10:59:17;;;;;;;0.47;0.20;;;9.80;99.90;;;;;;5115831;27;20478;-53
2023/11/10 11:01:49;;;;;;;0.85;0.30;;;9.80;99.90;;;;;;5123683;27;20443;-52
2023/11/10 11:04:30;;;;;;;1.17;0.20;;;9.90;99.90;;;;;;5131919;27;20834;-55
2023/11/10 11:07:16;;;;;;;0.50;0.20;;;9.90;99.90;;;;;;5130717;27;20438;-53
2023/11/10 11:10:00;;;;;;;0.70;0.20;;;9.80;99.90;;;;;;5123944;27;20423;-53
2023/11/10 11:12:48;;;;;;;0.30;0.15;;;9.90;99.90;;;;;;5128179;27;20523;-53
2023/11/10 11:15:24;;;;;;;1.05;0.20;;;10.00;99.90;;;;;;5130205;27;20430;-53
2023/11/10 11:18:17;;;;;;;1.05;0.20;;;10.10;99.90;;;;;;5111189;27;20855;-52
2023/11/10 11:20:46;;;;;;;1.20;0.20;;;10.50;99.90;;;;;;5118233;27;20821;-52
2023/11/10 11:23:14;;;;;;;0.40;0.20;;;11.30;99.90;;;;;;5129743;27;20918;-49
2023/11/10 11:25:42;;;;;;;0.57;0.20;;;11.20;99.90;;;;;;5128042;27;20544;-53
2023/11/10 11:28:09;;;;;;;0.60;0.20;;;11.20;99.90;;;;;;5129025;27;20430;-53
2023/11/10 11:30:37;;;;;;;0.60;0.20;;;11.30;99.90;;;;;;5126603;27;20868;-51
2023/11/10 11:33:07;;;;;;;0.50;0.20;;;11.30;99.90;;;;;;5130322;27;20430;-59
2023/11/10 11:35:46;;;;;;;1.20;0.20;;;11.30;99.90;;;;;;5131167;27;20838;-59
2023/11/10 11:38:25;;;;;;;0.50;0.20;;;11.40;99.90;;;;;;5130970;27;20491;-59
2023/11/10 11:40:53;;;;;;;0.40;0.20;;;11.40;99.90;;;;;;5129599;27;20414;-59
2023/11/10 11:43:24;;;;;;;0.50;0.20;;;11.60;99.90;;;;;;5130317;27;20439;-59
2023/11/10 11:45:52;;;;;;;0.70;0.20;;;11.40;99.90;;;;;;5131919;27;20929;-60
2023/11/10 11:48:21;;;;;;;0.30;0.10;;;11.50;99.90;;;;;;5130961;27;20431;-59
2023/11/10 11:50:53;;;;;;;0.90;0.20;;;11.50;99.90;;;;;;5130544;27;20795;-60
2023/11/10 11:53:20;;;;;;;0.40;0.10;;;11.60;99.90;;;;;;5130604;27;20465;-60
2023/11/10 11:55:52;;;;;;;0.30;0.20;;;11.60;99.90;;;;;;5131513;27;20421;-61
2023/11/10 11:58:20;;;;;;;0.50;0.20;;;11.70;99.90;;;;;;5131637;27;20842;-60
2023/11/10 12:00:47;;;;;;;0.70;0.10;;;11.70;99.90;;;;;;5130524;27;20479;-59
2023/11/10 12:03:14;;;;;;;0.50;0.10;;;11.60;99.90;;;;;;5129246;27;20650;-59
2023/11/10 12:05:44;;;;;;;0.63;0.20;;;11.70;99.90;;;;;;5130461;27;20427;-61
2023/11/10 12:08:15;;;;;;;0.30;0.10;;;11.80;99.90;;;;;;5129812;27;20700;-61
2023/11/10 12:10:45;;;;;;;0.77;0.10;;;11.80;99.90;;;;;;5129286;27;20620;-60
2023/11/10 12:13:13;;;;;;;0.50;0.20;;;11.90;99.90;;;;;;5113907;27;20533;-61
2023/11/10 12:15:41;;;;;;;1.00;0.20;;;11.90;99.90;;;;;;5130082;27;20422;-60
2023/11/10 12:18:08;;;;;;;1.20;0.10;;;11.90;99.90;;;;;;5129097;27;20849;-61
2023/11/10 12:22:55;;;;;;;1.40;0.20;;;11.90;99.90;;;;;;5137261;27;20350;-59
2023/11/10 12:25:26;;;;;;;0.73;0.20;;;11.70;99.90;;;;;;5146195;27;20425;-52
2023/11/10 12:27:53;;;;;;;1.00;0.20;;;11.60;99.90;;;;;;5146564;27;20845;-55
2023/11/10 12:30:22;;;;;;;0.30;0.10;;;11.30;99.90;;;;;;5146356;27;21072;-54
2023/11/10 12:32:51;;;;;;;0.40;0.20;;;11.20;99.90;;;;;;5145654;27;20501;-54
2023/11/10 12:35:20;;;;;;;0.30;0.10;;;11.20;99.90;;;;;;5145704;27;20418;-54
2023/11/10 12:37:52;;;;;;;0.43;0.20;;;11.30;99.90;;;;;;5146729;27;20414;-55
2023/11/10 12:40:22;;;;;;;0.40;0.20;;;11.30;99.90;;;;;;5144267;27;20879;-55
2023/11/10 12:42:49;;;;;;;0.30;0.10;;;11.40;99.90;;;;;;5141419;27;20436;-56
2023/11/10 12:45:19;;;;;;;0.50;0.20;;;11.50;99.90;;;;;;5146562;27;20930;-54
2023/11/10 12:47:47;;;;;;;0.40;0.10;;;11.40;99.90;;;;;;5145413;27;20456;-52
2023/11/10 12:50:17;;;;;;;0.40;0.10;;;11.40;99.90;;;;;;5145101;27;20719;-54
2023/11/10 12:52:45;;;;;;;0.30;0.10;;;11.40;99.90;;;;;;5145575;27;20856;-54
2023/11/10 12:55:12;;;;;;;0.60;0.10;;;11.30;99.90;;;;;;5147150;27;20425;-54
2023/11/10 12:57:40;;;;;;;0.30;0.10;;;11.10;99.90;;;;;;5145364;27;20427;-55
2023/11/10 13:00:13;;;;;;;0.60;0.20;;;11.00;99.90;;;;;;5143939;27;20494;-55
2023/11/10 13:02:40;;;;;;;0.50;0.20;;;10.90;99.90;;;;;;5143401;27;20833;-53